Time;durP1;ratioP1;P1;durP2;ratioP2;P2;SDS_P1;SDS_P2;PMS_P1;PMS_P2;Temp;Humidity;BMP_temperature;BMP_pressure;BME280_temperature;BME280_humidity;BME280_pressure;Samples;Min_cycle;Max_cycle;Signal;HPM_P1;HPM_P2
2022/02/08 00:02:13;;;;;;;1.63;1.53;;;3.20;98.00;;;;;;5033262;28;20485;-69
2022/02/08 00:04:40;;;;;;;1.70;1.20;;;3.20;98.00;;;;;;5033237;28;20928;-69
2022/02/08 00:07:09;;;;;;;1.10;1.07;;;3.10;98.00;;;;;;5033307;28;20847;-69
2022/02/08 00:09:37;;;;;;;2.30;2.10;;;3.10;98.00;;;;;;5033257;28;20461;-69
2022/02/08 00:12:08;;;;;;;1.10;0.90;;;3.10;98.00;;;;;;5033198;28;20494;-69
2022/02/08 00:14:36;;;;;;;1.10;1.00;;;3.10;98.00;;;;;;5033300;28;20467;-69
2022/02/08 00:17:04;;;;;;;1.30;1.20;;;3.10;98.00;;;;;;5033079;28;20487;-69
2022/02/08 00:19:32;;;;;;;1.30;1.27;;;3.00;98.00;;;;;;5033332;28;20462;-69
2022/02/08 00:21:59;;;;;;;1.30;1.20;;;3.00;98.00;;;;;;5033004;28;20489;-69
2022/02/08 00:24:26;;;;;;;1.10;1.00;;;3.00;98.00;;;;;;5033384;28;20454;-69
2022/02/08 00:26:55;;;;;;;1.10;0.90;;;3.00;98.00;;;;;;5032904;28;20455;-69
2022/02/08 00:29:22;;;;;;;1.20;1.10;;;3.00;98.00;;;;;;5031883;28;21045;-69
2022/02/08 00:31:50;;;;;;;1.10;1.00;;;3.00;98.00;;;;;;5033199;28;20784;-69
2022/02/08 00:34:17;;;;;;;1.20;1.10;;;2.90;98.00;;;;;;5032960;28;20505;-69
2022/02/08 00:36:44;;;;;;;1.10;1.00;;;2.80;98.00;;;;;;5032599;28;20525;-69
2022/02/08 00:39:12;;;;;;;1.10;1.00;;;2.90;98.00;;;;;;5031542;28;20968;-69
2022/02/08 00:41:39;;;;;;;1.50;1.33;;;2.80;98.00;;;;;;5032687;28;20963;-69
2022/02/08 00:44:11;;;;;;;1.10;1.00;;;2.80;98.00;;;;;;5032723;28;20896;-69
2022/02/08 00:46:43;;;;;;;1.67;1.20;;;2.60;98.00;;;;;;5032230;28;20466;-69
2022/02/08 00:49:13;;;;;;;1.20;1.10;;;2.60;98.00;;;;;;5032589;28;20481;-69
2022/02/08 00:51:43;;;;;;;1.23;1.20;;;2.50;98.00;;;;;;5032503;28;20459;-70
2022/02/08 00:54:15;;;;;;;1.10;1.10;;;2.60;98.00;;;;;;5032454;28;20458;-69
2022/02/08 00:56:44;;;;;;;1.10;0.90;;;2.50;98.00;;;;;;5032382;28;20465;-69
2022/02/08 00:59:12;;;;;;;1.30;1.30;;;2.50;98.00;;;;;;5032564;28;20528;-69
2022/02/08 01:01:39;;;;;;;1.10;1.00;;;2.40;98.00;;;;;;5032687;28;20983;-69
2022/02/08 01:04:09;;;;;;;1.10;1.00;;;2.50;98.00;;;;;;5032693;28;20458;-69
2022/02/08 01:06:39;;;;;;;1.10;1.00;;;2.50;98.00;;;;;;5032291;28;20541;-69
2022/02/08 01:09:12;;;;;;;1.30;1.23;;;2.40;98.00;;;;;;5032318;28;20494;-69
2022/02/08 01:11:41;;;;;;;1.93;1.83;;;2.50;98.00;;;;;;5032169;28;20463;-69
2022/02/08 01:14:09;;;;;;;1.10;1.10;;;2.60;98.00;;;;;;5032165;28;20560;-69
2022/02/08 01:16:36;;;;;;;1.10;1.00;;;2.70;98.00;;;;;;5031949;28;20463;-69
2022/02/08 01:19:04;;;;;;;1.10;1.10;;;2.60;98.00;;;;;;5031972;28;20462;-69
2022/02/08 01:21:32;;;;;;;1.20;1.17;;;2.50;98.00;;;;;;5031921;28;20459;-69
2022/02/08 01:24:01;;;;;;;1.10;0.90;;;2.60;98.00;;;;;;5032069;28;20501;-70
2022/02/08 01:26:30;;;;;;;1.53;1.30;;;2.40;98.00;;;;;;5031815;28;20493;-69
2022/02/08 01:29:03;;;;;;;1.40;1.20;;;2.30;98.00;;;;;;5031650;28;20489;-69
2022/02/08 01:31:35;;;;;;;1.10;1.00;;;2.30;98.00;;;;;;5031686;28;20454;-69
2022/02/08 01:34:13;;;;;;;1.20;1.10;;;2.30;98.00;;;;;;5031474;28;20823;-69
2022/02/08 01:37:00;;;;;;;1.80;1.53;;;2.40;98.00;;;;;;5031712;28;20497;-69
2022/02/08 01:39:37;;;;;;;1.10;0.90;;;2.60;98.00;;;;;;5031864;28;20450;-69
2022/02/08 01:42:27;;;;;;;1.10;1.00;;;2.50;98.00;;;;;;5031594;28;20529;-69
2022/02/08 01:45:07;;;;;;;1.10;1.00;;;2.40;98.00;;;;;;5032180;28;20473;-69
2022/02/08 01:47:45;;;;;;;1.53;1.40;;;2.40;98.00;;;;;;5032230;28;20493;-69
2022/02/08 01:50:15;;;;;;;1.10;1.00;;;2.40;98.00;;;;;;5031626;28;20457;-69
2022/02/08 01:52:43;;;;;;;1.30;1.30;;;2.30;98.00;;;;;;5031546;28;20515;-69
2022/02/08 01:55:14;;;;;;;1.10;1.00;;;2.20;98.00;;;;;;5031466;28;20486;-69
2022/02/08 01:57:44;;;;;;;1.67;1.57;;;2.10;98.00;;;;;;5030918;28;20458;-69
2022/02/08 02:00:13;;;;;;;1.10;1.00;;;2.10;98.00;;;;;;5031546;28;20466;-69
2022/02/08 02:02:45;;;;;;;1.10;1.00;;;2.00;98.00;;;;;;5031236;28;20486;-69
2022/02/08 02:05:14;;;;;;;1.53;1.47;;;1.90;98.00;;;;;;5031389;28;20541;-69
2022/02/08 02:07:48;;;;;;;1.10;1.00;;;1.80;98.00;;;;;;5031139;28;20491;-69
2022/02/08 02:10:18;;;;;;;1.10;1.00;;;1.90;98.00;;;;;;5031248;28;20458;-70
2022/02/08 02:12:56;;;;;;;1.20;1.20;;;1.90;98.00;;;;;;5030739;28;20957;-69
2022/02/08 02:15:24;;;;;;;1.10;0.90;;;2.00;98.00;;;;;;5031249;28;20475;-70
2022/02/08 02:17:53;;;;;;;1.10;1.00;;;2.10;98.00;;;;;;5031049;28;20945;-69
2022/02/08 02:20:20;;;;;;;1.10;1.00;;;2.10;98.00;;;;;;5031081;28;20498;-69
2022/02/08 02:22:47;;;;;;;1.10;0.90;;;2.20;98.00;;;;;;5031134;28;20560;-70
2022/02/08 02:25:24;;;;;;;1.10;0.90;;;2.20;98.00;;;;;;5031113;28;20453;-70
2022/02/08 02:27:54;;;;;;;1.10;0.90;;;2.10;98.00;;;;;;5031096;28;20521;-69
2022/02/08 02:30:22;;;;;;;1.10;1.00;;;2.10;98.00;;;;;;5031394;28;20974;-70
2022/02/08 02:32:49;;;;;;;1.27;1.23;;;2.10;98.00;;;;;;5031182;28;20520;-69
2022/02/08 02:35:18;;;;;;;1.80;1.40;;;2.20;98.00;;;;;;5031016;28;20869;-70
2022/02/08 02:37:45;;;;;;;1.20;1.13;;;2.10;98.00;;;;;;5029604;28;20552;-69
2022/02/08 02:40:14;;;;;;;1.10;1.00;;;2.10;98.00;;;;;;5030971;28;20466;-69
2022/02/08 02:42:42;;;;;;;1.60;1.23;;;2.10;98.00;;;;;;5030853;28;20465;-69
2022/02/08 02:45:10;;;;;;;1.10;1.00;;;2.20;98.00;;;;;;5030755;28;20466;-69
2022/02/08 02:47:38;;;;;;;1.37;1.17;;;2.20;98.00;;;;;;5030722;28;20461;-69
2022/02/08 02:50:09;;;;;;;1.10;1.00;;;2.20;98.00;;;;;;5029588;28;20455;-70
2022/02/08 02:52:36;;;;;;;1.10;0.90;;;2.20;98.00;;;;;;5030603;28;20465;-69
2022/02/08 02:55:04;;;;;;;1.50;1.20;;;2.20;98.00;;;;;;5030634;28;20520;-69
2022/02/08 02:57:31;;;;;;;1.10;1.00;;;2.30;98.00;;;;;;5030725;28;20458;-69
2022/02/08 03:00:06;;;;;;;1.20;1.17;;;2.50;98.00;;;;;;5030568;28;20527;-69
2022/02/08 03:02:40;;;;;;;1.10;1.00;;;2.50;98.00;;;;;;5030299;28;20806;-69
2022/02/08 03:05:19;;;;;;;1.10;0.90;;;2.60;98.00;;;;;;5030598;28;20519;-69
2022/02/08 03:18:46;;;;;;;1.10;1.00;;;3.00;98.00;;;;;;5034382;28;20442;-70
2022/02/08 03:21:13;;;;;;;1.10;1.03;;;3.10;98.00;;;;;;5034400;28;20455;-70
2022/02/08 03:23:42;;;;;;;1.10;1.07;;;3.20;98.00;;;;;;5034077;28;20501;-69
2022/02/08 03:26:09;;;;;;;1.10;0.97;;;3.10;98.00;;;;;;5034354;28;20872;-69
2022/02/08 03:28:55;;;;;;;1.30;1.23;;;3.10;98.00;;;;;;5033983;28;20494;-69
2022/02/08 03:31:25;;;;;;;1.37;1.30;;;3.20;98.00;;;;;;5033689;28;20731;-69
2022/02/08 03:33:53;;;;;;;1.13;1.00;;;3.20;98.00;;;;;;5034115;28;20455;-70
2022/02/08 03:36:19;;;;;;;1.10;1.00;;;3.20;98.00;;;;;;5034083;28;20640;-69
2022/02/08 03:38:58;;;;;;;1.10;1.00;;;3.30;98.00;;;;;;5033942;28;20459;-69
2022/02/08 03:41:29;;;;;;;1.10;1.00;;;3.30;98.00;;;;;;5033586;28;20494;-69
2022/02/08 03:43:56;;;;;;;1.40;1.37;;;3.40;98.00;;;;;;5034109;28;20545;-69
2022/02/08 03:46:29;;;;;;;1.10;1.00;;;3.50;98.00;;;;;;5033852;28;21029;-70
2022/02/08 03:48:56;;;;;;;1.10;0.90;;;3.40;98.00;;;;;;5033695;28;20490;-69
2022/02/08 03:51:26;;;;;;;1.10;1.00;;;3.40;98.00;;;;;;5033828;28;20454;-69
2022/02/08 03:53:53;;;;;;;1.10;1.00;;;3.40;98.00;;;;;;5033965;28;20983;-69
2022/02/08 03:56:23;;;;;;;1.10;1.00;;;3.30;98.00;;;;;;5033718;28;20486;-69
2022/02/08 03:58:54;;;;;;;1.10;1.00;;;3.20;98.00;;;;;;5033661;28;20764;-69
2022/02/08 04:02:00;;;;;;;1.10;0.97;;;3.30;98.00;;;;;;5033792;28;20512;-69
2022/02/08 04:04:45;;;;;;;1.20;1.00;;;3.40;98.00;;;;;;5033387;28;20818;-70
2022/02/08 04:07:14;;;;;;;1.10;0.90;;;3.60;98.00;;;;;;5033402;28;20463;-69
2022/02/08 04:09:41;;;;;;;1.10;1.00;;;3.60;98.00;;;;;;5033327;28;20483;-69
2022/02/08 04:12:16;;;;;;;1.27;1.20;;;3.60;98.00;;;;;;5033498;28;20470;-70
2022/02/08 04:14:49;;;;;;;1.37;1.17;;;3.60;98.00;;;;;;5032175;28;20959;-69
2022/02/08 04:17:28;;;;;;;1.10;0.90;;;3.70;98.00;;;;;;5033121;28;20501;-69
2022/02/08 04:31:37;;;;;;;1.10;1.00;;;3.90;98.00;;;;;;5033009;28;20882;-69
2022/02/08 04:34:23;;;;;;;1.10;1.00;;;4.00;98.00;;;;;;5031940;28;20865;-70
2022/02/08 04:39:52;;;;;;;1.10;1.00;;;3.80;98.00;;;;;;5009686;28;20465;-69
2022/02/08 04:42:24;;;;;;;1.30;1.00;;;3.80;98.00;;;;;;5032794;28;20458;-70
2022/02/08 04:45:03;;;;;;;1.10;1.00;;;3.80;98.00;;;;;;5032762;28;20911;-69
2022/02/08 04:47:35;;;;;;;2.40;1.40;;;3.90;98.00;;;;;;5032402;28;20451;-69
2022/02/08 04:50:02;;;;;;;1.10;1.00;;;3.90;98.00;;;;;;5032582;28;20854;-70
2022/02/08 04:52:31;;;;;;;1.50;1.37;;;3.90;98.00;;;;;;5032345;28;20463;-70
2022/02/08 04:55:14;;;;;;;1.10;0.90;;;3.90;98.00;;;;;;5032518;28;20501;-69
2022/02/08 04:57:47;;;;;;;1.50;1.30;;;4.00;98.00;;;;;;5032308;28;20945;-70
2022/02/08 05:00:22;;;;;;;1.10;0.90;;;4.00;98.00;;;;;;5031251;28;20467;-69
2022/02/08 05:36:16;;;;;;;2.13;1.00;;;4.20;98.00;;;;;;5032122;28;20447;-70
2022/02/08 05:41:43;;;;;;;1.10;0.93;;;4.20;98.00;;;;;;5031741;28;20520;-70
2022/02/08 05:44:26;;;;;;;1.10;1.00;;;4.20;98.00;;;;;;5031389;28;20476;-69
2022/02/08 05:46:54;;;;;;;1.20;1.00;;;4.20;98.00;;;;;;5031407;28;20462;-69
2022/02/08 05:49:26;;;;;;;1.67;1.57;;;4.20;98.00;;;;;;5031191;28;20482;-69
2022/02/08 05:54:38;;;;;;;1.10;1.00;;;4.30;98.00;;;;;;5000515;28;20451;-69
2022/02/08 05:57:08;;;;;;;1.10;1.00;;;4.30;98.00;;;;;;5031265;28;20556;-69
2022/02/08 05:59:36;;;;;;;2.07;1.33;;;4.30;98.00;;;;;;5031370;28;20462;-70
2022/02/08 06:02:04;;;;;;;1.10;1.00;;;4.30;98.00;;;;;;5031198;28;20945;-70
2022/02/08 06:04:34;;;;;;;1.10;0.90;;;4.30;98.00;;;;;;5031212;28;20524;-69
2022/02/08 06:07:00;;;;;;;1.10;1.00;;;4.30;98.00;;;;;;5031089;28;20533;-69
2022/02/08 06:09:28;;;;;;;1.10;1.00;;;4.30;98.00;;;;;;5031136;28;20988;-69
2022/02/08 06:11:55;;;;;;;1.10;1.00;;;4.30;98.00;;;;;;5031138;28;20545;-70
2022/02/08 06:14:29;;;;;;;1.10;1.00;;;4.30;98.00;;;;;;5031168;28;20462;-70
2022/02/08 06:16:56;;;;;;;4.77;1.40;;;4.30;98.00;;;;;;5031269;28;20613;-69
2022/02/08 06:19:23;;;;;;;1.17;1.00;;;4.30;98.00;;;;;;5031108;28;20486;-69
2022/02/08 06:21:50;;;;;;;1.10;0.90;;;4.30;98.00;;;;;;5030536;28;20541;-69
2022/02/08 06:24:17;;;;;;;1.10;0.90;;;4.40;98.00;;;;;;5030958;28;20491;-69
2022/02/08 06:26:44;;;;;;;1.10;0.90;;;4.40;98.00;;;;;;5030911;28;21026;-70
2022/02/08 06:29:15;;;;;;;1.10;1.00;;;4.40;98.00;;;;;;5031284;28;20539;-69
2022/02/08 06:31:45;;;;;;;1.10;1.00;;;4.40;98.00;;;;;;5031211;28;20481;-70
2022/02/08 06:34:18;;;;;;;1.10;1.00;;;4.40;98.00;;;;;;5030919;28;20458;-69
2022/02/08 06:36:45;;;;;;;1.10;1.00;;;4.40;98.00;;;;;;5031217;28;20571;-69
2022/02/08 06:39:16;;;;;;;1.10;1.00;;;4.40;98.00;;;;;;5031017;28;20534;-69
2022/02/08 06:41:44;;;;;;;1.10;0.90;;;4.40;98.00;;;;;;5031791;28;20450;-69
2022/02/08 06:44:11;;;;;;;1.10;1.00;;;4.50;98.00;;;;;;5034599;28;20470;-70
2022/02/08 06:46:38;;;;;;;1.10;1.00;;;4.50;98.00;;;;;;5035367;28;20948;-69
2022/02/08 06:49:08;;;;;;;1.10;1.00;;;4.60;98.00;;;;;;5035039;28;20486;-69
2022/02/08 06:51:35;;;;;;;1.10;1.00;;;4.60;98.00;;;;;;5035150;28;20509;-69
2022/02/08 06:54:02;;;;;;;1.10;1.00;;;4.60;98.00;;;;;;5034836;28;20458;-70
2022/02/08 06:56:29;;;;;;;1.20;1.13;;;4.60;98.00;;;;;;5035021;28;20498;-69
2022/02/08 06:59:04;;;;;;;1.10;1.00;;;4.60;98.00;;;;;;5034540;28;21002;-69
2022/02/08 07:01:33;;;;;;;1.40;1.10;;;4.60;98.00;;;;;;5034743;28;20473;-69
2022/02/08 07:04:00;;;;;;;1.10;0.90;;;4.70;98.00;;;;;;5034663;28;20955;-69
2022/02/08 07:06:29;;;;;;;1.20;1.10;;;4.70;98.00;;;;;;5034798;28;20516;-69
2022/02/08 07:08:56;;;;;;;1.10;1.00;;;4.70;98.00;;;;;;5034521;28;20574;-69
2022/02/08 07:11:25;;;;;;;1.10;1.00;;;4.70;98.00;;;;;;5034473;28;21029;-69
2022/02/08 07:13:53;;;;;;;1.20;1.00;;;4.70;98.00;;;;;;5034340;28;20458;-69
2022/02/08 07:16:21;;;;;;;1.10;1.00;;;4.70;98.00;;;;;;5034355;28;20531;-69
2022/02/08 07:18:48;;;;;;;1.20;1.20;;;4.70;98.00;;;;;;5034269;28;20547;-69
2022/02/08 07:21:15;;;;;;;1.20;1.00;;;4.70;98.00;;;;;;5034296;28;20455;-69
2022/02/08 07:23:43;;;;;;;1.10;0.90;;;4.80;98.00;;;;;;5034199;28;20493;-69
2022/02/08 07:26:10;;;;;;;1.10;0.90;;;4.90;98.00;;;;;;5033950;28;20462;-69
2022/02/08 07:28:41;;;;;;;1.10;1.00;;;4.90;98.00;;;;;;5033929;28;20466;-69
2022/02/08 07:31:15;;;;;;;1.10;1.00;;;4.90;98.00;;;;;;5034071;28;20455;-69
2022/02/08 07:33:51;;;;;;;1.13;1.00;;;5.00;98.00;;;;;;5033834;28;20471;-69
2022/02/08 07:36:28;;;;;;;1.43;1.20;;;5.10;98.00;;;;;;5033673;28;20870;-69
2022/02/08 07:38:57;;;;;;;1.10;1.00;;;5.10;98.00;;;;;;5033928;28;20459;-69
2022/02/08 07:41:37;;;;;;;1.10;1.00;;;5.20;98.00;;;;;;5033911;28;20569;-69
2022/02/08 07:44:06;;;;;;;1.10;0.90;;;5.20;98.00;;;;;;5033299;28;20463;-69
2022/02/08 07:46:33;;;;;;;1.10;0.97;;;5.30;98.00;;;;;;5033776;28;20459;-69
2022/02/08 07:49:01;;;;;;;1.63;1.23;;;5.30;98.00;;;;;;5033642;28;20514;-69
2022/02/08 07:51:28;;;;;;;1.30;1.13;;;5.20;98.00;;;;;;5033391;28;20452;-69
2022/02/08 07:53:57;;;;;;;1.20;1.10;;;5.30;98.00;;;;;;5032969;28;20462;-69
2022/02/08 07:56:24;;;;;;;1.13;0.90;;;5.30;98.00;;;;;;5032372;28;20463;-69
2022/02/08 07:58:51;;;;;;;1.10;0.90;;;5.40;98.00;;;;;;5033029;28;20468;-68
2022/02/08 08:01:18;;;;;;;1.20;1.00;;;5.40;98.00;;;;;;5033566;28;20468;-69
2022/02/08 08:03:45;;;;;;;1.10;0.90;;;5.40;98.00;;;;;;5033444;28;20459;-69
2022/02/08 08:06:14;;;;;;;1.10;1.00;;;5.40;98.00;;;;;;5033329;28;20451;-69
2022/02/08 08:08:42;;;;;;;1.10;1.00;;;5.40;98.00;;;;;;5033637;28;20448;-69
2022/02/08 08:11:14;;;;;;;1.30;1.10;;;5.40;98.00;;;;;;5033539;28;20521;-69
2022/02/08 08:13:47;;;;;;;2.50;1.17;;;5.40;98.00;;;;;;5032245;28;20960;-69
2022/02/08 08:16:23;;;;;;;1.10;1.00;;;5.50;98.00;;;;;;5033315;28;20455;-69
2022/02/08 08:19:02;;;;;;;1.10;0.90;;;5.50;98.00;;;;;;5033180;28;20481;-69
2022/02/08 08:21:30;;;;;;;1.10;0.90;;;5.60;98.00;;;;;;5033319;28;20459;-69
2022/02/08 08:23:58;;;;;;;1.10;1.00;;;5.70;98.00;;;;;;5033175;28;20469;-69
2022/02/08 08:26:27;;;;;;;2.00;1.30;;;5.70;98.00;;;;;;5033067;28;20454;-67
2022/02/08 08:28:54;;;;;;;1.10;0.90;;;5.80;98.00;;;;;;5026638;28;20959;-69
2022/02/08 08:31:21;;;;;;;1.10;1.00;;;5.80;98.00;;;;;;5012372;28;20548;-69
2022/02/08 08:33:48;;;;;;;1.30;1.17;;;5.90;98.00;;;;;;5020915;28;20489;-68
2022/02/08 08:36:18;;;;;;;2.80;1.20;;;5.90;98.00;;;;;;5029801;28;20457;-69
2022/02/08 08:38:46;;;;;;;1.10;1.00;;;6.00;98.00;;;;;;5011902;28;20501;-69
2022/02/08 08:41:22;;;;;;;1.10;0.90;;;6.10;98.00;;;;;;5020224;28;20553;-70
2022/02/08 08:52:04;;;;;;;1.40;1.30;;;6.10;98.00;;;;;;5028367;28;20483;-69
2022/02/08 08:54:31;;;;;;;1.10;0.93;;;6.20;98.00;;;;;;5020194;28;21005;-69
2022/02/08 08:56:58;;;;;;;1.20;1.10;;;6.20;98.00;;;;;;5010222;28;20468;-69
2022/02/08 08:59:26;;;;;;;4.50;1.63;;;6.40;98.00;;;;;;5019580;28;20492;-69
2022/02/08 09:01:53;;;;;;;1.20;1.00;;;6.50;98.00;;;;;;5029139;28;21042;-69
2022/02/08 09:04:23;;;;;;;1.20;0.90;;;6.50;98.00;;;;;;5012288;28;20488;-69
2022/02/08 09:06:50;;;;;;;1.20;1.00;;;6.60;98.00;;;;;;5010893;28;20483;-69
2022/02/08 09:09:23;;;;;;;1.20;1.00;;;6.50;98.00;;;;;;5019380;28;20524;-68
2022/02/08 09:11:58;;;;;;;1.20;1.00;;;6.60;98.00;;;;;;5012202;28;20886;-67
2022/02/08 09:14:40;;;;;;;1.20;1.00;;;6.60;98.00;;;;;;5020236;28;20456;-68
2022/02/08 09:17:36;;;;;;;1.30;1.00;;;6.70;98.00;;;;;;5027321;28;20467;-69
2022/02/08 09:28:22;;;;;;;1.17;0.93;;;7.10;98.00;;;;;;5019091;28;20473;-65
2022/02/08 09:30:57;;;;;;;1.20;0.90;;;7.20;98.00;;;;;;5018718;28;20503;-66
2022/02/08 09:33:24;;;;;;;1.20;0.90;;;7.40;98.00;;;;;;5027741;28;20455;-66
2022/02/08 09:35:51;;;;;;;1.20;1.00;;;7.40;98.00;;;;;;5019603;28;20498;-66
2022/02/08 09:38:19;;;;;;;1.20;1.00;;;7.40;98.00;;;;;;5016226;28;20462;-67
2022/02/08 09:40:46;;;;;;;1.20;1.00;;;7.40;98.00;;;;;;5020132;28;20460;-66
2022/02/08 09:43:17;;;;;;;1.20;1.00;;;7.30;98.00;;;;;;5019924;28;20482;-66
2022/02/08 09:45:46;;;;;;;1.10;1.00;;;7.40;98.00;;;;;;5017367;28;20542;-66
2022/02/08 09:48:22;;;;;;;1.20;0.90;;;7.30;98.00;;;;;;5010141;28;20823;-66
2022/02/08 09:50:50;;;;;;;1.20;1.00;;;7.40;98.00;;;;;;5011706;28;20487;-66
2022/02/08 09:53:23;;;;;;;1.43;1.33;;;7.30;98.00;;;;;;5011531;28;20963;-67
2022/02/08 09:55:50;;;;;;;1.20;1.00;;;7.40;98.00;;;;;;5012008;28;20533;-67
2022/02/08 09:58:17;;;;;;;1.20;1.00;;;7.40;98.00;;;;;;5011668;28;20485;-66
2022/02/08 10:00:44;;;;;;;1.20;1.00;;;7.50;98.00;;;;;;5011808;28;20958;-67
2022/02/08 10:03:14;;;;;;;3.63;1.40;;;7.60;98.00;;;;;;5011491;28;20455;-66
2022/02/08 10:05:44;;;;;;;1.20;1.00;;;7.60;98.00;;;;;;5011591;28;20503;-67
2022/02/08 10:08:12;;;;;;;1.20;0.90;;;7.70;98.00;;;;;;5010252;28;20509;-66
2022/02/08 10:10:39;;;;;;;1.23;1.10;;;7.80;98.00;;;;;;5011346;28;20621;-67
2022/02/08 10:13:29;;;;;;;1.20;0.90;;;7.80;98.00;;;;;;5011490;28;20518;-66
2022/02/08 10:21:46;;;;;;;1.20;1.00;;;7.90;98.00;;;;;;5011909;28;20445;-68
2022/02/08 10:24:15;;;;;;;1.20;1.10;;;8.00;98.00;;;;;;5011936;28;20457;-64
2022/02/08 10:26:54;;;;;;;1.20;1.00;;;8.10;98.00;;;;;;5010853;28;20928;-64
2022/02/08 10:29:27;;;;;;;1.37;1.13;;;8.20;98.00;;;;;;5011990;28;20458;-66
2022/02/08 10:32:06;;;;;;;1.20;1.00;;;8.30;98.00;;;;;;5012344;28;20542;-65
2022/02/08 10:37:43;;;;;;;1.20;1.00;;;8.50;98.00;;;;;;5018902;28;20451;-65
2022/02/08 10:40:11;;;;;;;1.20;1.00;;;8.70;98.00;;;;;;5031585;28;20831;-68
2022/02/08 10:42:42;;;;;;;1.20;0.90;;;8.90;98.00;;;;;;5031645;28;20525;-65
2022/02/08 10:45:20;;;;;;;1.20;1.00;;;9.20;98.00;;;;;;5031586;28;20466;-69
2022/02/08 10:47:54;;;;;;;1.20;1.00;;;9.30;98.00;;;;;;5031511;28;20450;-64
2022/02/08 10:50:22;;;;;;;1.30;1.30;;;9.20;98.00;;;;;;5019585;28;20504;-63
2022/02/08 10:52:50;;;;;;;1.20;1.00;;;9.20;98.00;;;;;;5010460;28;20928;-63
2022/02/08 10:55:28;;;;;;;1.20;1.00;;;9.20;98.00;;;;;;5018996;28;20459;-62
2022/02/08 10:58:06;;;;;;;1.50;1.13;;;9.20;98.00;;;;;;5010445;28;20980;-63
2022/02/08 11:00:38;;;;;;;1.37;1.20;;;9.20;98.00;;;;;;5019675;28;20455;-62
2022/02/08 11:03:11;;;;;;;1.20;1.07;;;9.30;98.00;;;;;;5017802;28;20460;-63
2022/02/08 11:05:45;;;;;;;1.20;0.90;;;9.40;98.00;;;;;;5026867;28;20457;-63
2022/02/08 11:08:25;;;;;;;1.20;1.00;;;9.40;98.00;;;;;;5014861;28;20511;-64
2022/02/08 11:11:11;;;;;;;1.20;1.00;;;9.30;98.00;;;;;;5012145;28;20505;-63
2022/02/08 11:13:58;;;;;;;1.20;1.00;;;9.30;98.00;;;;;;5013922;28;20956;-63
2022/02/08 11:16:30;;;;;;;1.20;0.90;;;9.40;98.00;;;;;;5011478;28;20457;-63
2022/02/08 11:19:11;;;;;;;1.20;1.03;;;9.50;98.00;;;;;;5011402;28;20856;-62
2022/02/08 11:21:52;;;;;;;1.20;1.00;;;9.50;98.00;;;;;;5020967;28;20545;-63
2022/02/08 11:24:30;;;;;;;1.20;1.00;;;9.50;98.00;;;;;;5014431;28;20456;-63
2022/02/08 11:27:08;;;;;;;1.60;1.30;;;9.40;98.00;;;;;;5010218;28;20450;-63
2022/02/08 11:29:40;;;;;;;1.20;0.93;;;9.40;98.00;;;;;;5011990;28;20457;-63
2022/02/08 11:32:18;;;;;;;1.20;1.00;;;9.50;98.00;;;;;;5014318;28;20490;-63
2022/02/08 11:46:26;;;;;;;1.20;1.10;;;9.80;98.00;;;;;;4953833;28;21016;-63
2022/02/08 11:52:15;;;;;;;1.20;1.10;;;9.80;98.00;;;;;;5009332;28;20486;-63
2022/02/08 11:55:06;;;;;;;1.20;1.00;;;9.80;98.00;;;;;;5014872;28;20541;-63
2022/02/08 12:00:37;;;;;;;1.20;1.00;;;9.70;98.00;;;;;;4978813;28;20467;-62
2022/02/08 12:06:24;;;;;;;1.20;1.10;;;9.80;98.00;;;;;;5009282;28;20547;-64
2022/02/08 12:08:55;;;;;;;1.20;1.00;;;10.00;98.00;;;;;;5013481;28;20451;-63
2022/02/08 12:11:35;;;;;;;1.20;1.00;;;10.10;98.00;;;;;;5014417;28;21037;-62
2022/02/08 12:33:43;;;;;;;1.20;1.00;;;10.40;98.00;;;;;;4977975;28;20467;-68
2022/02/08 12:36:27;;;;;;;1.20;0.90;;;10.40;98.00;;;;;;5013854;28;20547;-66
2022/02/08 12:51:34;;;;;;;1.30;1.20;;;10.10;98.00;;;;;;4942840;28;21035;-64
2022/02/08 12:56:45;;;;;;;1.30;1.10;;;9.90;98.00;;;;;;4977779;28;20452;-64
2022/02/08 12:59:37;;;;;;;1.20;1.07;;;9.90;98.00;;;;;;5013289;28;20467;-64
2022/02/08 13:02:20;;;;;;;1.20;1.07;;;9.90;98.00;;;;;;5013497;28;20529;-65
2022/02/08 13:05:10;;;;;;;1.20;1.00;;;9.90;98.00;;;;;;5013434;28;20458;-65
2022/02/08 14:06:18;;;;;;;1.20;1.00;;;10.40;98.00;;;;;;4986754;28;20984;-64
2022/02/08 14:11:56;;;;;;;1.20;1.00;;;10.40;98.00;;;;;;5013054;28;20486;-64
2022/02/08 14:23:29;;;;;;;1.20;1.00;;;10.40;98.00;;;;;;5150528;27;20546;-63
2022/02/08 14:31:44;;;;;;;1.20;0.90;;;10.20;98.00;;;;;;5129989;28;20534;-64
2022/02/08 14:34:41;;;;;;;1.20;1.00;;;10.20;98.00;;;;;;5129856;28;20482;-64
2022/02/08 15:07:53;;;;;;;1.20;0.90;;;10.00;98.00;;;;;;5130272;27;20437;-65
2022/02/08 15:10:20;;;;;;;1.20;1.00;;;10.00;98.00;;;;;;5137279;27;20443;-65
2022/02/08 15:12:53;;;;;;;1.40;1.20;;;10.00;98.00;;;;;;5118706;27;21475;-65
2022/02/08 15:15:28;;;;;;;1.20;1.00;;;10.00;98.00;;;;;;5143002;27;20935;-64
2022/02/08 15:17:55;;;;;;;1.20;1.00;;;10.00;98.00;;;;;;5136659;27;20456;-64
2022/02/08 15:20:24;;;;;;;1.20;1.00;;;10.00;98.00;;;;;;5139938;27;20483;-62
2022/02/08 15:22:51;;;;;;;1.20;0.90;;;10.00;98.00;;;;;;5140712;27;20568;-64
2022/02/08 15:25:18;;;;;;;1.20;1.00;;;9.90;98.00;;;;;;5141373;27;20450;-63
2022/02/08 15:27:46;;;;;;;1.20;1.00;;;9.90;98.00;;;;;;5127439;27;20950;-64
2022/02/08 15:30:15;;;;;;;1.20;1.00;;;9.90;98.00;;;;;;5138156;27;20466;-63
2022/02/08 15:32:42;;;;;;;1.20;1.00;;;9.80;98.00;;;;;;5139807;27;20497;-63
2022/02/08 15:35:11;;;;;;;1.20;0.90;;;9.80;98.00;;;;;;5130511;27;20480;-63
2022/02/08 15:37:38;;;;;;;1.40;1.10;;;9.80;98.00;;;;;;5130611;27;21042;-63
2022/02/08 15:40:09;;;;;;;1.20;1.00;;;9.80;98.00;;;;;;5119835;27;20515;-63
2022/02/08 15:42:40;;;;;;;2.80;1.10;;;9.80;98.00;;;;;;5122667;27;20493;-62
2022/02/08 15:45:15;;;;;;;1.20;1.00;;;9.90;98.00;;;;;;5116972;27;20451;-62
2022/02/08 15:47:44;;;;;;;1.20;1.00;;;9.80;98.00;;;;;;5125188;27;20956;-63
2022/02/08 15:50:16;;;;;;;1.20;1.00;;;9.70;98.00;;;;;;5119936;27;20451;-63
2022/02/08 15:55:51;;;;;;;1.20;1.00;;;9.70;98.00;;;;;;5148484;27;20554;-67
2022/02/08 16:00:03;;;;;;;1.20;0.90;;;9.70;98.00;;;;;;5119064;28;20805;-65
2022/02/08 16:01:25;;;;;;;1.20;0.90;;;9.70;98.00;;;;;;5121307;28;20450;-62
2022/02/08 16:09:32;;;;;;;1.20;0.90;;;9.70;98.00;;;;;;5119020;28;20452;-65
2022/02/08 16:12:21;;;;;;;1.20;0.90;;;9.60;98.00;;;;;;5127127;28;20522;-65
2022/02/08 16:17:40;;;;;;;1.97;1.40;;;9.60;98.00;;;;;;5126501;28;21064;-65
2022/02/08 16:20:16;;;;;;;1.20;0.90;;;9.50;98.00;;;;;;5127126;28;20448;-64
2022/02/08 16:25:36;;;;;;;1.20;0.90;;;9.60;98.00;;;;;;5127391;28;20545;-65
2022/02/08 16:28:20;;;;;;;1.20;1.00;;;9.50;98.00;;;;;;5119608;28;20447;-64
2022/02/08 16:33:59;;;;;;;1.20;0.90;;;9.30;98.00;;;;;;5124935;28;20458;-64
2022/02/08 16:51:30;;;;;;;1.20;0.90;;;8.90;98.00;;;;;;5145224;27;20551;-63
2022/02/08 16:53:45;;;;;;;1.30;1.10;;;8.90;98.00;;;;;;5127003;28;20799;-63
2022/02/08 16:56:25;;;;;;;1.20;1.00;;;9.00;98.00;;;;;;5127137;28;20466;-63
2022/02/08 16:58:54;;;;;;;1.47;1.00;;;9.00;98.00;;;;;;5125871;28;20949;-62
2022/02/08 17:01:26;;;;;;;1.20;0.90;;;9.00;98.00;;;;;;5126998;28;20530;-63
2022/02/08 17:03:54;;;;;;;1.20;1.10;;;9.00;98.00;;;;;;5126856;28;20551;-63
2022/02/08 17:06:24;;;;;;;1.20;1.10;;;9.00;98.00;;;;;;5126918;28;20458;-62
2022/02/08 17:08:58;;;;;;;1.20;0.90;;;9.00;98.00;;;;;;5125581;28;20518;-63
2022/02/08 17:11:35;;;;;;;1.30;1.20;;;9.00;98.00;;;;;;5126921;28;21555;-62
2022/02/08 17:47:30;;;;;;;1.33;1.07;;;9.00;98.00;;;;;;5123882;28;20976;-63
2022/02/08 17:49:57;;;;;;;1.20;1.00;;;9.00;98.00;;;;;;5120419;28;20489;-64
2022/02/08 17:52:24;;;;;;;1.20;0.90;;;8.90;98.00;;;;;;5125051;28;20487;-64
2022/02/08 17:54:55;;;;;;;1.20;0.90;;;8.90;98.00;;;;;;5125415;28;20540;-64
2022/02/08 17:57:22;;;;;;;1.30;1.10;;;8.90;98.00;;;;;;5123183;28;20491;-65
2022/02/08 17:59:49;;;;;;;1.20;0.90;;;8.90;98.00;;;;;;5122553;28;20489;-64
2022/02/08 18:02:16;;;;;;;1.60;1.30;;;8.90;98.00;;;;;;5110989;28;20481;-64
2022/02/08 18:04:46;;;;;;;1.20;1.10;;;8.80;98.00;;;;;;5110411;28;20457;-65
2022/02/08 18:07:17;;;;;;;1.17;0.90;;;8.90;98.00;;;;;;5111801;28;20478;-65
2022/02/08 18:09:44;;;;;;;1.20;1.00;;;8.90;98.00;;;;;;5111487;28;20576;-64
2022/02/08 18:12:14;;;;;;;1.20;1.00;;;8.80;98.00;;;;;;5109706;28;20498;-64
2022/02/08 18:14:47;;;;;;;1.20;1.00;;;8.80;98.00;;;;;;5109336;28;20561;-64
2022/02/08 18:17:18;;;;;;;1.20;0.90;;;8.80;98.00;;;;;;5110637;28;20501;-64
2022/02/08 18:19:51;;;;;;;1.40;1.10;;;8.80;98.00;;;;;;5110865;28;20851;-64
2022/02/08 18:22:29;;;;;;;1.20;1.00;;;8.70;98.00;;;;;;5111943;28;20446;-64
2022/02/08 18:25:24;;;;;;;1.20;0.90;;;8.60;98.00;;;;;;5111843;28;20455;-64
2022/02/08 19:09:29;;;;;;;1.20;1.00;;;8.40;98.00;;;;;;5111030;28;20494;-64
2022/02/08 19:12:10;;;;;;;1.20;1.07;;;8.40;98.00;;;;;;5110258;28;20457;-64
2022/02/08 19:17:38;;;;;;;1.27;1.10;;;8.70;98.00;;;;;;5110466;28;20967;-64
2022/02/08 19:20:11;;;;;;;1.20;1.00;;;8.80;98.00;;;;;;5110975;28;20474;-65
2022/02/08 19:22:38;;;;;;;1.20;1.00;;;8.90;98.00;;;;;;5111067;28;20454;-63